sensor_id;sensor_type;location;lat;lon;timestamp;temperature;humidity
53802;DHT22;39709;53.334;6.534;2023-02-21T00:02:12;9.40;1.00
53802;DHT22;39709;53.334;6.534;2023-02-21T00:04:57;9.30;1.00
53802;DHT22;39709;53.334;6.534;2023-02-21T00:07:41;9.50;1.00
53802;DHT22;39709;53.334;6.534;2023-02-21T00:10:25;9.80;1.00
53802;DHT22;39709;53.334;6.534;2023-02-21T00:13:10;9.90;1.00
53802;DHT22;39709;53.334;6.534;2023-02-21T00:15:54;9.80;1.00
53802;DHT22;39709;53.334;6.534;2023-02-21T00:18:39;9.70;1.00
53802;DHT22;39709;53.334;6.534;2023-02-21T00:21:26;9.40;1.00
53802;DHT22;39709;53.334;6.534;2023-02-21T00:24:15;9.30;1.00
53802;DHT22;39709;53.334;6.534;2023-02-21T00:27:00;9.60;1.00
53802;DHT22;39709;53.334;6.534;2023-02-21T00:29:46;9.30;1.00
53802;DHT22;39709;53.334;6.534;2023-02-21T00:32:30;9.50;14.60
53802;DHT22;39709;53.334;6.534;2023-02-21T00:35:15;9.80;1.00
53802;DHT22;39709;53.334;6.534;2023-02-21T00:37:59;9.30;1.00
53802;DHT22;39709;53.334;6.534;2023-02-21T00:40:43;9.30;1.00
53802;DHT22;39709;53.334;6.534;2023-02-21T00:43:29;9.70;1.00
53802;DHT22;39709;53.334;6.534;2023-02-21T00:46:14;9.30;1.00
53802;DHT22;39709;53.334;6.534;2023-02-21T00:48:58;9.50;1.00
53802;DHT22;39709;53.334;6.534;2023-02-21T00:51:42;9.20;1.00
53802;DHT22;39709;53.334;6.534;2023-02-21T00:54:27;9.20;7.30
53802;DHT22;39709;53.334;6.534;2023-02-21T00:57:12;9.70;1.10
53802;DHT22;39709;53.334;6.534;2023-02-21T00:59:56;9.50;4.30
53802;DHT22;39709;53.334;6.534;2023-02-21T01:02:40;9.50;2.50
53802;DHT22;39709;53.334;6.534;2023-02-21T01:05:25;9.70;35.30
53802;DHT22;39709;53.334;6.534;2023-02-21T01:08:09;9.50;11.40
53802;DHT22;39709;53.334;6.534;2023-02-21T01:10:54;9.20;15.90
53802;DHT22;39709;53.334;6.534;2023-02-21T01:13:38;9.10;10.30
53802;DHT22;39709;53.334;6.534;2023-02-21T01:16:22;9.20;13.40
53802;DHT22;39709;53.334;6.534;2023-02-21T01:19:06;9.40;20.80
53802;DHT22;39709;53.334;6.534;2023-02-21T01:21:51;9.10;30.70
53802;DHT22;39709;53.334;6.534;2023-02-21T01:24:35;9.50;65.10
53802;DHT22;39709;53.334;6.534;2023-02-21T01:27:19;10.20;12.10
53802;DHT22;39709;53.334;6.534;2023-02-21T01:30:04;9.80;1.00
53802;DHT22;39709;53.334;6.534;2023-02-21T01:32:48;10.30;1.00
53802;DHT22;39709;53.334;6.534;2023-02-21T01:35:33;10.40;1.00
53802;DHT22;39709;53.334;6.534;2023-02-21T01:38:17;10.00;1.00
53802;DHT22;39709;53.334;6.534;2023-02-21T01:41:02;10.10;1.00
53802;DHT22;39709;53.334;6.534;2023-02-21T01:47:11;10.10;1.00
53802;DHT22;39709;53.334;6.534;2023-02-21T01:49:57;10.00;1.00
53802;DHT22;39709;53.334;6.534;2023-02-21T01:52:41;10.10;1.00
53802;DHT22;39709;53.334;6.534;2023-02-21T01:55:26;9.90;1.00
53802;DHT22;39709;53.334;6.534;2023-02-21T01:58:10;10.20;1.00
53802;DHT22;39709;53.334;6.534;2023-02-21T02:00:54;9.80;1.00
53802;DHT22;39709;53.334;6.534;2023-02-21T02:03:40;10.10;1.00
53802;DHT22;39709;53.334;6.534;2023-02-21T02:06:24;10.30;1.00
53802;DHT22;39709;53.334;6.534;2023-02-21T02:09:17;10.40;1.00
53802;DHT22;39709;53.334;6.534;2023-02-21T02:23:08;9.90;1.00
53802;DHT22;39709;53.334;6.534;2023-02-21T02:25:58;9.90;1.00
53802;DHT22;39709;53.334;6.534;2023-02-21T02:36:54;10.10;1.00
53802;DHT22;39709;53.334;6.534;2023-02-21T02:42:33;9.90;1.00
53802;DHT22;39709;53.334;6.534;2023-02-21T02:45:10;10.00;1.00
53802;DHT22;39709;53.334;6.534;2023-02-21T02:47:41;10.10;1.00
53802;DHT22;39709;53.334;6.534;2023-02-21T02:50:08;10.30;1.00
53802;DHT22;39709;53.334;6.534;2023-02-21T02:52:35;9.90;1.00
53802;DHT22;39709;53.334;6.534;2023-02-21T02:55:23;10.40;1.00
53802;DHT22;39709;53.334;6.534;2023-02-21T02:57:51;10.40;1.00
53802;DHT22;39709;53.334;6.534;2023-02-21T03:00:18;10.40;1.00
53802;DHT22;39709;53.334;6.534;2023-02-21T03:05:54;10.20;1.00
53802;DHT22;39709;53.334;6.534;2023-02-21T03:11:17;10.40;1.00
53802;DHT22;39709;53.334;6.534;2023-02-21T03:13:49;10.30;1.00
53802;DHT22;39709;53.334;6.534;2023-02-21T03:16:37;9.80;1.00
53802;DHT22;39709;53.334;6.534;2023-02-21T03:19:14;10.20;1.00
53802;DHT22;39709;53.334;6.534;2023-02-21T03:21:51;9.80;1.00
53802;DHT22;39709;53.334;6.534;2023-02-21T03:24:20;9.70;1.00
53802;DHT22;39709;53.334;6.534;2023-02-21T03:26:51;10.20;1.00
53802;DHT22;39709;53.334;6.534;2023-02-21T03:29:18;9.80;1.00
53802;DHT22;39709;53.334;6.534;2023-02-21T03:31:50;10.10;1.00
53802;DHT22;39709;53.334;6.534;2023-02-21T03:34:19;9.60;1.00
53802;DHT22;39709;53.334;6.534;2023-02-21T03:36:46;9.60;1.00
53802;DHT22;39709;53.334;6.534;2023-02-21T03:39:12;10.20;1.00
53802;DHT22;39709;53.334;6.534;2023-02-21T03:41:38;9.70;1.00
53802;DHT22;39709;53.334;6.534;2023-02-21T03:44:03;10.30;1.00
53802;DHT22;39709;53.334;6.534;2023-02-21T03:46:29;9.80;1.00
53802;DHT22;39709;53.334;6.534;2023-02-21T03:48:55;9.60;1.00
53802;DHT22;39709;53.334;6.534;2023-02-21T03:51:21;9.80;1.00
53802;DHT22;39709;53.334;6.534;2023-02-21T03:53:46;10.20;1.00
53802;DHT22;39709;53.334;6.534;2023-02-21T03:56:12;10.10;1.00
53802;DHT22;39709;53.334;6.534;2023-02-21T03:58:38;9.70;1.00
53802;DHT22;39709;53.334;6.534;2023-02-21T04:01:04;10.00;1.00
53802;DHT22;39709;53.334;6.534;2023-02-21T04:03:29;10.10;1.00
53802;DHT22;39709;53.334;6.534;2023-02-21T04:05:55;9.90;1.00
53802;DHT22;39709;53.334;6.534;2023-02-21T04:08:21;9.60;1.00
53802;DHT22;39709;53.334;6.534;2023-02-21T04:10:46;9.60;1.00
53802;DHT22;39709;53.334;6.534;2023-02-21T04:13:12;9.90;1.00
53802;DHT22;39709;53.334;6.534;2023-02-21T04:15:38;10.00;1.00
53802;DHT22;39709;53.334;6.534;2023-02-21T04:18:04;10.20;1.00
53802;DHT22;39709;53.334;6.534;2023-02-21T04:20:29;10.00;1.00
53802;DHT22;39709;53.334;6.534;2023-02-21T04:22:55;9.80;1.00
53802;DHT22;39709;53.334;6.534;2023-02-21T04:25:21;9.80;1.00
53802;DHT22;39709;53.334;6.534;2023-02-21T04:27:46;9.90;1.00
53802;DHT22;39709;53.334;6.534;2023-02-21T04:30:12;10.00;1.00
53802;DHT22;39709;53.334;6.534;2023-02-21T04:32:38;9.60;1.00
53802;DHT22;39709;53.334;6.534;2023-02-21T04:35:04;10.10;1.00
53802;DHT22;39709;53.334;6.534;2023-02-21T04:37:29;9.80;1.00
53802;DHT22;39709;53.334;6.534;2023-02-21T04:39:55;9.50;1.00
53802;DHT22;39709;53.334;6.534;2023-02-21T04:42:21;9.70;1.00
53802;DHT22;39709;53.334;6.534;2023-02-21T04:44:46;10.00;1.00
53802;DHT22;39709;53.334;6.534;2023-02-21T04:47:12;10.10;1.00
53802;DHT22;39709;53.334;6.534;2023-02-21T04:49:38;10.10;1.00
53802;DHT22;39709;53.334;6.534;2023-02-21T04:52:03;9.70;1.00
53802;DHT22;39709;53.334;6.534;2023-02-21T04:54:29;9.90;1.00
53802;DHT22;39709;53.334;6.534;2023-02-21T04:56:55;10.00;1.00
53802;DHT22;39709;53.334;6.534;2023-02-21T04:59:20;9.80;1.00
53802;DHT22;39709;53.334;6.534;2023-02-21T05:01:46;9.50;1.00
53802;DHT22;39709;53.334;6.534;2023-02-21T05:04:11;9.80;1.00
53802;DHT22;39709;53.334;6.534;2023-02-21T05:06:37;9.50;1.00
53802;DHT22;39709;53.334;6.534;2023-02-21T05:09:03;9.90;1.00
53802;DHT22;39709;53.334;6.534;2023-02-21T05:11:33;9.30;1.00
53802;DHT22;39709;53.334;6.534;2023-02-21T05:14:01;10.00;1.00
53802;DHT22;39709;53.334;6.534;2023-02-21T05:16:27;9.60;1.00
53802;DHT22;39709;53.334;6.534;2023-02-21T05:18:53;9.80;1.00
53802;DHT22;39709;53.334;6.534;2023-02-21T05:21:19;9.70;5.90
53802;DHT22;39709;53.334;6.534;2023-02-21T05:23:45;9.30;11.70
53802;DHT22;39709;53.334;6.534;2023-02-21T05:26:23;9.40;10.30
53802;DHT22;39709;53.334;6.534;2023-02-21T05:28:49;9.90;2.80
53802;DHT22;39709;53.334;6.534;2023-02-21T05:31:16;9.80;2.60
53802;DHT22;39709;53.334;6.534;2023-02-21T05:33:41;9.70;1.00
53802;DHT22;39709;53.334;6.534;2023-02-21T05:36:07;9.40;4.10
53802;DHT22;39709;53.334;6.534;2023-02-21T05:38:50;9.20;12.30
53802;DHT22;39709;53.334;6.534;2023-02-21T05:41:17;9.80;9.70
53802;DHT22;39709;53.334;6.534;2023-02-21T05:43:44;9.70;8.70
53802;DHT22;39709;53.334;6.534;2023-02-21T05:46:28;9.90;3.10
53802;DHT22;39709;53.334;6.534;2023-02-21T05:48:55;9.40;8.50
53802;DHT22;39709;53.334;6.534;2023-02-21T05:51:22;9.90;8.80
53802;DHT22;39709;53.334;6.534;2023-02-21T05:53:48;9.40;1.00
53802;DHT22;39709;53.334;6.534;2023-02-21T05:56:15;9.60;4.00
53802;DHT22;39709;53.334;6.534;2023-02-21T05:58:41;9.80;1.00
53802;DHT22;39709;53.334;6.534;2023-02-21T06:01:06;9.50;5.40
53802;DHT22;39709;53.334;6.534;2023-02-21T06:03:32;9.90;11.40
53802;DHT22;39709;53.334;6.534;2023-02-21T06:05:59;9.70;3.80
53802;DHT22;39709;53.334;6.534;2023-02-21T06:08:24;9.90;1.00
53802;DHT22;39709;53.334;6.534;2023-02-21T06:10:50;9.50;3.30
53802;DHT22;39709;53.334;6.534;2023-02-21T06:13:16;9.80;14.30
53802;DHT22;39709;53.334;6.534;2023-02-21T06:15:42;9.80;19.00
53802;DHT22;39709;53.334;6.534;2023-02-21T06:18:08;9.80;13.80
53802;DHT22;39709;53.334;6.534;2023-02-21T06:20:36;9.30;10.80
53802;DHT22;39709;53.334;6.534;2023-02-21T06:23:02;9.40;10.00
53802;DHT22;39709;53.334;6.534;2023-02-21T06:25:27;9.80;7.90
53802;DHT22;39709;53.334;6.534;2023-02-21T06:27:53;9.80;15.70
53802;DHT22;39709;53.334;6.534;2023-02-21T06:30:19;9.50;10.80
53802;DHT22;39709;53.334;6.534;2023-02-21T06:32:45;9.90;10.20
53802;DHT22;39709;53.334;6.534;2023-02-21T06:35:11;9.70;4.50
53802;DHT22;39709;53.334;6.534;2023-02-21T06:37:37;9.20;28.90
53802;DHT22;39709;53.334;6.534;2023-02-21T06:40:03;9.80;22.80
53802;DHT22;39709;53.334;6.534;2023-02-21T06:42:30;9.70;14.40
53802;DHT22;39709;53.334;6.534;2023-02-21T06:44:56;9.20;17.30
53802;DHT22;39709;53.334;6.534;2023-02-21T06:47:21;9.20;25.10
53802;DHT22;39709;53.334;6.534;2023-02-21T06:49:47;9.50;11.20
53802;DHT22;39709;53.334;6.534;2023-02-21T06:52:13;9.60;34.90
53802;DHT22;39709;53.334;6.534;2023-02-21T06:54:39;9.20;31.30
53802;DHT22;39709;53.334;6.534;2023-02-21T06:57:04;9.40;33.20
53802;DHT22;39709;53.334;6.534;2023-02-21T06:59:30;9.70;24.90
53802;DHT22;39709;53.334;6.534;2023-02-21T07:01:56;9.20;32.50
53802;DHT22;39709;53.334;6.534;2023-02-21T07:04:23;9.70;38.00
53802;DHT22;39709;53.334;6.534;2023-02-21T07:06:49;9.40;39.60
53802;DHT22;39709;53.334;6.534;2023-02-21T07:09:15;9.10;40.90
53802;DHT22;39709;53.334;6.534;2023-02-21T07:11:41;9.60;46.20
53802;DHT22;39709;53.334;6.534;2023-02-21T07:14:06;9.50;55.60
53802;DHT22;39709;53.334;6.534;2023-02-21T07:16:32;9.50;67.50
53802;DHT22;39709;53.334;6.534;2023-02-21T07:18:58;9.30;58.20
53802;DHT22;39709;53.334;6.534;2023-02-21T07:21:25;9.50;61.70
53802;DHT22;39709;53.334;6.534;2023-02-21T07:23:51;9.00;63.80
53802;DHT22;39709;53.334;6.534;2023-02-21T07:26:17;9.50;76.50
53802;DHT22;39709;53.334;6.534;2023-02-21T07:28:43;9.60;71.10
53802;DHT22;39709;53.334;6.534;2023-02-21T07:31:10;9.00;70.10
53802;DHT22;39709;53.334;6.534;2023-02-21T07:33:36;9.60;69.30
53802;DHT22;39709;53.334;6.534;2023-02-21T07:36:02;8.90;70.30
53802;DHT22;39709;53.334;6.534;2023-02-21T07:38:29;9.40;64.70
53802;DHT22;39709;53.334;6.534;2023-02-21T07:41:00;9.60;72.50
53802;DHT22;39709;53.334;6.534;2023-02-21T07:43:27;9.10;59.40
53802;DHT22;39709;53.334;6.534;2023-02-21T07:45:53;9.50;59.80
53802;DHT22;39709;53.334;6.534;2023-02-21T07:48:19;9.10;63.90
53802;DHT22;39709;53.334;6.534;2023-02-21T07:50:45;9.40;54.80
53802;DHT22;39709;53.334;6.534;2023-02-21T07:53:12;9.80;56.50
53802;DHT22;39709;53.334;6.534;2023-02-21T07:55:38;9.20;33.80
53802;DHT22;39709;53.334;6.534;2023-02-21T07:58:04;9.30;21.30
53802;DHT22;39709;53.334;6.534;2023-02-21T08:00:30;9.50;32.10
53802;DHT22;39709;53.334;6.534;2023-02-21T08:02:57;9.60;55.90
53802;DHT22;39709;53.334;6.534;2023-02-21T08:05:23;9.10;67.10
53802;DHT22;39709;53.334;6.534;2023-02-21T08:07:49;9.10;46.30
53802;DHT22;39709;53.334;6.534;2023-02-21T08:10:20;8.90;85.50
53802;DHT22;39709;53.334;6.534;2023-02-21T08:12:46;9.30;72.50
53802;DHT22;39709;53.334;6.534;2023-02-21T08:15:12;9.30;55.50
53802;DHT22;39709;53.334;6.534;2023-02-21T08:17:37;9.50;46.30
53802;DHT22;39709;53.334;6.534;2023-02-21T08:20:03;9.80;35.60
53802;DHT22;39709;53.334;6.534;2023-02-21T08:22:31;9.10;1.00
53802;DHT22;39709;53.334;6.534;2023-02-21T08:24:56;8.90;33.80
53802;DHT22;39709;53.334;6.534;2023-02-21T08:27:22;9.30;59.20
53802;DHT22;39709;53.334;6.534;2023-02-21T08:29:51;9.30;62.90
53802;DHT22;39709;53.334;6.534;2023-02-21T08:32:18;8.80;76.60
53802;DHT22;39709;53.334;6.534;2023-02-21T08:34:47;9.30;88.00
53802;DHT22;39709;53.334;6.534;2023-02-21T08:37:13;9.30;99.30
53802;DHT22;39709;53.334;6.534;2023-02-21T08:39:51;9.30;95.70
53802;DHT22;39709;53.334;6.534;2023-02-21T08:42:18;9.40;83.70
53802;DHT22;39709;53.334;6.534;2023-02-21T08:44:44;9.50;94.20
53802;DHT22;39709;53.334;6.534;2023-02-21T08:47:14;9.10;96.00
53802;DHT22;39709;53.334;6.534;2023-02-21T08:49:47;8.90;85.90
53802;DHT22;39709;53.334;6.534;2023-02-21T08:52:14;9.50;89.50
53802;DHT22;39709;53.334;6.534;2023-02-21T08:54:41;9.50;75.90
53802;DHT22;39709;53.334;6.534;2023-02-21T08:57:07;9.20;73.80
53802;DHT22;39709;53.334;6.534;2023-02-21T08:59:33;9.00;75.80
53802;DHT22;39709;53.334;6.534;2023-02-21T09:02:02;9.40;99.80
53802;DHT22;39709;53.334;6.534;2023-02-21T09:04:28;9.10;66.10
53802;DHT22;39709;53.334;6.534;2023-02-21T09:06:54;9.60;61.70
53802;DHT22;39709;53.334;6.534;2023-02-21T09:09:20;9.30;62.20
53802;DHT22;39709;53.334;6.534;2023-02-21T09:11:46;9.70;50.70
53802;DHT22;39709;53.334;6.534;2023-02-21T09:14:15;9.70;51.80
53802;DHT22;39709;53.334;6.534;2023-02-21T09:16:41;9.40;46.10
53802;DHT22;39709;53.334;6.534;2023-02-21T09:19:07;9.80;56.90
53802;DHT22;39709;53.334;6.534;2023-02-21T09:21:34;9.40;30.40
53802;DHT22;39709;53.334;6.534;2023-02-21T09:24:00;9.70;33.50
53802;DHT22;39709;53.334;6.534;2023-02-21T09:26:27;9.80;28.80
53802;DHT22;39709;53.334;6.534;2023-02-21T09:28:57;9.60;59.50
53802;DHT22;39709;53.334;6.534;2023-02-21T09:31:23;9.80;79.40
53802;DHT22;39709;53.334;6.534;2023-02-21T09:33:49;9.40;19.30
53802;DHT22;39709;53.334;6.534;2023-02-21T09:36:15;9.80;26.90
53802;DHT22;39709;53.334;6.534;2023-02-21T09:38:41;9.80;49.50
53802;DHT22;39709;53.334;6.534;2023-02-21T09:41:09;9.40;20.30
53802;DHT22;39709;53.334;6.534;2023-02-21T09:43:45;9.70;50.60
53802;DHT22;39709;53.334;6.534;2023-02-21T09:46:45;9.50;24.80
53802;DHT22;39709;53.334;6.534;2023-02-21T09:51:47;9.90;13.30
53802;DHT22;39709;53.334;6.534;2023-02-21T09:54:32;10.00;8.40
53802;DHT22;39709;53.334;6.534;2023-02-21T09:57:00;9.60;10.20
53802;DHT22;39709;53.334;6.534;2023-02-21T09:59:27;9.70;11.20
53802;DHT22;39709;53.334;6.534;2023-02-21T10:02:15;10.10;1.00
53802;DHT22;39709;53.334;6.534;2023-02-21T10:15:57;9.60;11.40
53802;DHT22;39709;53.334;6.534;2023-02-21T10:21:20;9.80;9.20
53802;DHT22;39709;53.334;6.534;2023-02-21T10:23:50;9.90;13.50
53802;DHT22;39709;53.334;6.534;2023-02-21T10:26:21;9.60;11.80
53802;DHT22;39709;53.334;6.534;2023-02-21T10:28:49;9.80;12.50
53802;DHT22;39709;53.334;6.534;2023-02-21T10:31:26;9.60;14.80
53802;DHT22;39709;53.334;6.534;2023-02-21T10:33:54;9.80;13.80
53802;DHT22;39709;53.334;6.534;2023-02-21T10:36:21;9.70;17.40
53802;DHT22;39709;53.334;6.534;2023-02-21T10:39:05;10.00;15.30
53802;DHT22;39709;53.334;6.534;2023-02-21T10:41:38;9.70;16.70
53802;DHT22;39709;53.334;6.534;2023-02-21T10:44:28;10.10;1.00
53802;DHT22;39709;53.334;6.534;2023-02-21T10:47:32;9.70;1.00
53802;DHT22;39709;53.334;6.534;2023-02-21T10:50:05;10.20;1.00
53802;DHT22;39709;53.334;6.534;2023-02-21T10:52:47;9.70;1.00
53802;DHT22;39709;53.334;6.534;2023-02-21T10:55:22;10.10;1.00
53802;DHT22;39709;53.334;6.534;2023-02-21T10:57:57;10.20;1.00
53802;DHT22;39709;53.334;6.534;2023-02-21T11:00:47;10.00;1.00
53802;DHT22;39709;53.334;6.534;2023-02-21T11:05:48;10.20;1.00
53802;DHT22;39709;53.334;6.534;2023-02-21T11:08:14;10.20;1.00
53802;DHT22;39709;53.334;6.534;2023-02-21T11:10:43;9.80;1.00
53802;DHT22;39709;53.334;6.534;2023-02-21T11:15:40;10.30;1.00
53802;DHT22;39709;53.334;6.534;2023-02-21T11:18:14;9.90;1.00
53802;DHT22;39709;53.334;6.534;2023-02-21T11:20:40;10.50;1.00
53802;DHT22;39709;53.334;6.534;2023-02-21T11:23:28;10.30;1.00
53802;DHT22;39709;53.334;6.534;2023-02-21T11:26:05;10.10;1.00
53802;DHT22;39709;53.334;6.534;2023-02-21T11:28:40;10.40;1.00
53802;DHT22;39709;53.334;6.534;2023-02-21T11:33:42;9.90;1.00
53802;DHT22;39709;53.334;6.534;2023-02-21T11:36:14;10.40;1.00
53802;DHT22;39709;53.334;6.534;2023-02-21T11:38:43;9.90;1.00
53802;DHT22;39709;53.334;6.534;2023-02-21T11:43:56;9.90;1.00
53802;DHT22;39709;53.334;6.534;2023-02-21T11:49:23;10.20;1.00
53802;DHT22;39709;53.334;6.534;2023-02-21T11:51:56;10.50;1.00
53802;DHT22;39709;53.334;6.534;2023-02-21T11:54:27;10.20;1.00
53802;DHT22;39709;53.334;6.534;2023-02-21T11:57:02;10.10;1.00
53802;DHT22;39709;53.334;6.534;2023-02-21T11:59:43;10.30;1.00
53802;DHT22;39709;53.334;6.534;2023-02-21T12:05:16;10.40;1.00
53802;DHT22;39709;53.334;6.534;2023-02-21T12:11:17;10.40;1.00
53802;DHT22;39709;53.334;6.534;2023-02-21T12:23:03;10.10;1.00
53802;DHT22;39709;53.334;6.534;2023-02-21T12:27:53;10.30;1.00
53802;DHT22;39709;53.334;6.534;2023-02-21T12:38:35;10.10;1.00
53802;DHT22;39709;53.334;6.534;2023-02-21T12:41:29;10.30;1.00
53802;DHT22;39709;53.334;6.534;2023-02-21T12:44:14;10.40;1.00
53802;DHT22;39709;53.334;6.534;2023-02-21T12:47:00;10.40;1.00
53802;DHT22;39709;53.334;6.534;2023-02-21T12:52:33;10.40;1.00
53802;DHT22;39709;53.334;6.534;2023-02-21T12:55:02;10.30;1.00
53802;DHT22;39709;53.334;6.534;2023-02-21T13:00:42;10.30;1.00
53802;DHT22;39709;53.334;6.534;2023-02-21T13:05:59;10.30;1.00
53802;DHT22;39709;53.334;6.534;2023-02-21T13:11:26;10.60;1.00
53802;DHT22;39709;53.334;6.534;2023-02-21T13:13:55;10.60;1.00
53802;DHT22;39709;53.334;6.534;2023-02-21T13:16:21;10.10;1.00
53802;DHT22;39709;53.334;6.534;2023-02-21T13:18:54;10.60;1.00
53802;DHT22;39709;53.334;6.534;2023-02-21T13:29:45;10.60;1.00
53802;DHT22;39709;53.334;6.534;2023-02-21T13:32:13;10.20;1.00
53802;DHT22;39709;53.334;6.534;2023-02-21T13:34:44;10.10;1.00
53802;DHT22;39709;53.334;6.534;2023-02-21T13:37:25;10.30;1.00
53802;DHT22;39709;53.334;6.534;2023-02-21T13:39:56;10.40;1.00
53802;DHT22;39709;53.334;6.534;2023-02-21T13:42:28;10.00;1.00
53802;DHT22;39709;53.334;6.534;2023-02-21T13:54:02;10.40;1.00
53802;DHT22;39709;53.334;6.534;2023-02-21T13:58:39;10.40;1.00
53802;DHT22;39709;53.334;6.534;2023-02-21T14:03:50;10.20;1.00
53802;DHT22;39709;53.334;6.534;2023-02-21T14:08:47;10.50;1.00
53802;DHT22;39709;53.334;6.534;2023-02-21T14:11:19;10.20;1.00
53802;DHT22;39709;53.334;6.534;2023-02-21T14:13:55;10.60;1.00
53802;DHT22;39709;53.334;6.534;2023-02-21T14:21:49;10.40;1.00
53802;DHT22;39709;53.334;6.534;2023-02-21T14:24:22;10.40;1.00
53802;DHT22;39709;53.334;6.534;2023-02-21T14:26:54;10.10;1.00
53802;DHT22;39709;53.334;6.534;2023-02-21T14:39:59;10.50;1.00
53802;DHT22;39709;53.334;6.534;2023-02-21T14:42:41;10.20;1.00
53802;DHT22;39709;53.334;6.534;2023-02-21T14:50:33;10.50;1.00
53802;DHT22;39709;53.334;6.534;2023-02-21T15:07:15;10.10;1.00
53802;DHT22;39709;53.334;6.534;2023-02-21T15:09:44;10.20;1.00
53802;DHT22;39709;53.334;6.534;2023-02-21T15:12:15;10.40;1.00
53802;DHT22;39709;53.334;6.534;2023-02-21T15:14:49;10.00;1.00
53802;DHT22;39709;53.334;6.534;2023-02-21T15:17:23;10.10;1.00
53802;DHT22;39709;53.334;6.534;2023-02-21T15:20:12;10.40;1.00
53802;DHT22;39709;53.334;6.534;2023-02-21T15:22:38;10.00;1.00
53802;DHT22;39709;53.334;6.534;2023-02-21T15:27:54;10.40;1.00
53802;DHT22;39709;53.334;6.534;2023-02-21T15:33:05;9.80;1.90
53802;DHT22;39709;53.334;6.534;2023-02-21T15:35:37;10.20;8.80
53802;DHT22;39709;53.334;6.534;2023-02-21T15:38:10;9.70;18.00
53802;DHT22;39709;53.334;6.534;2023-02-21T15:40:39;9.70;29.00
53802;DHT22;39709;53.334;6.534;2023-02-21T15:43:05;10.00;45.70
53802;DHT22;39709;53.334;6.534;2023-02-21T15:45:51;9.80;50.00
53802;DHT22;39709;53.334;6.534;2023-02-21T15:48:17;9.70;68.10
53802;DHT22;39709;53.334;6.534;2023-02-21T15:50:44;10.00;69.40
53802;DHT22;39709;53.334;6.534;2023-02-21T15:53:14;9.60;71.60
53802;DHT22;39709;53.334;6.534;2023-02-21T15:55:41;9.60;83.20
53802;DHT22;39709;53.334;6.534;2023-02-21T16:00:34;10.10;98.80
53802;DHT22;39709;53.334;6.534;2023-02-21T16:05:51;9.90;99.90
53802;DHT22;39709;53.334;6.534;2023-02-21T16:08:17;9.40;99.90
53802;DHT22;39709;53.334;6.534;2023-02-21T16:10:44;9.60;99.90
53802;DHT22;39709;53.334;6.534;2023-02-21T16:13:10;9.40;99.90
53802;DHT22;39709;53.334;6.534;2023-02-21T16:15:38;9.30;99.90
53802;DHT22;39709;53.334;6.534;2023-02-21T16:18:10;9.40;99.90
53802;DHT22;39709;53.334;6.534;2023-02-21T16:20:42;9.20;99.90
53802;DHT22;39709;53.334;6.534;2023-02-21T16:23:29;9.80;99.90
53802;DHT22;39709;53.334;6.534;2023-02-21T16:28:24;9.80;99.90
53802;DHT22;39709;53.334;6.534;2023-02-21T16:30:50;9.30;99.90
53802;DHT22;39709;53.334;6.534;2023-02-21T16:33:16;9.20;99.90
53802;DHT22;39709;53.334;6.534;2023-02-21T16:35:42;9.70;99.90
53802;DHT22;39709;53.334;6.534;2023-02-21T16:38:14;9.60;99.90
53802;DHT22;39709;53.334;6.534;2023-02-21T16:40:40;9.10;99.90
53802;DHT22;39709;53.334;6.534;2023-02-21T16:43:06;9.00;99.90
53802;DHT22;39709;53.334;6.534;2023-02-21T16:45:32;9.20;99.90
53802;DHT22;39709;53.334;6.534;2023-02-21T16:48:00;8.90;99.90
53802;DHT22;39709;53.334;6.534;2023-02-21T16:50:35;8.90;99.90
53802;DHT22;39709;53.334;6.534;2023-02-21T16:53:02;9.40;99.90
53802;DHT22;39709;53.334;6.534;2023-02-21T16:55:28;8.90;99.90
53802;DHT22;39709;53.334;6.534;2023-02-21T16:58:00;8.90;99.90
53802;DHT22;39709;53.334;6.534;2023-02-21T17:00:27;8.90;99.90
53802;DHT22;39709;53.334;6.534;2023-02-21T17:02:52;9.50;99.90
53802;DHT22;39709;53.334;6.534;2023-02-21T17:05:19;9.50;99.90
53802;DHT22;39709;53.334;6.534;2023-02-21T17:07:47;9.40;99.90
53802;DHT22;39709;53.334;6.534;2023-02-21T17:10:13;9.00;99.90
53802;DHT22;39709;53.334;6.534;2023-02-21T17:12:38;8.90;99.90
53802;DHT22;39709;53.334;6.534;2023-02-21T17:15:04;9.50;99.90
53802;DHT22;39709;53.334;6.534;2023-02-21T17:17:30;8.90;99.90
53802;DHT22;39709;53.334;6.534;2023-02-21T17:19:56;9.00;99.90
53802;DHT22;39709;53.334;6.534;2023-02-21T17:22:21;9.40;99.90
53802;DHT22;39709;53.334;6.534;2023-02-21T17:24:47;9.40;99.90
53802;DHT22;39709;53.334;6.534;2023-02-21T17:27:13;9.40;99.90
53802;DHT22;39709;53.334;6.534;2023-02-21T17:29:38;8.90;99.90
53802;DHT22;39709;53.334;6.534;2023-02-21T17:32:04;8.80;99.90
53802;DHT22;39709;53.334;6.534;2023-02-21T17:34:35;9.40;99.90
53802;DHT22;39709;53.334;6.534;2023-02-21T17:37:02;8.90;99.90
53802;DHT22;39709;53.334;6.534;2023-02-21T17:39:28;9.30;99.90
53802;DHT22;39709;53.334;6.534;2023-02-21T17:41:54;9.10;99.90
53802;DHT22;39709;53.334;6.534;2023-02-21T17:44:20;8.80;99.90
53802;DHT22;39709;53.334;6.534;2023-02-21T17:46:51;9.00;99.90
53802;DHT22;39709;53.334;6.534;2023-02-21T17:49:18;9.30;99.90
53802;DHT22;39709;53.334;6.534;2023-02-21T17:51:45;9.30;99.90
53802;DHT22;39709;53.334;6.534;2023-02-21T17:54:18;8.50;99.90
53802;DHT22;39709;53.334;6.534;2023-02-21T17:56:44;8.70;99.90
53802;DHT22;39709;53.334;6.534;2023-02-21T17:59:10;9.20;99.90
53802;DHT22;39709;53.334;6.534;2023-02-21T18:01:36;8.50;99.90
53802;DHT22;39709;53.334;6.534;2023-02-21T18:04:02;8.60;99.90
53802;DHT22;39709;53.334;6.534;2023-02-21T18:06:28;8.90;99.90
53802;DHT22;39709;53.334;6.534;2023-02-21T18:08:55;8.90;99.90
53802;DHT22;39709;53.334;6.534;2023-02-21T18:11:22;8.50;99.90
53802;DHT22;39709;53.334;6.534;2023-02-21T18:13:49;9.20;99.90
53802;DHT22;39709;53.334;6.534;2023-02-21T18:16:15;8.50;99.90
53802;DHT22;39709;53.334;6.534;2023-02-21T18:18:40;9.20;99.90
53802;DHT22;39709;53.334;6.534;2023-02-21T18:21:07;8.50;99.90
53802;DHT22;39709;53.334;6.534;2023-02-21T18:23:33;8.60;99.90
53802;DHT22;39709;53.334;6.534;2023-02-21T18:26:00;9.20;99.90
53802;DHT22;39709;53.334;6.534;2023-02-21T18:28:27;8.70;99.90
53802;DHT22;39709;53.334;6.534;2023-02-21T18:30:53;8.50;99.90
53802;DHT22;39709;53.334;6.534;2023-02-21T18:33:21;8.30;99.90
53802;DHT22;39709;53.334;6.534;2023-02-21T18:35:47;8.40;99.90
53802;DHT22;39709;53.334;6.534;2023-02-21T18:38:13;9.20;99.90
53802;DHT22;39709;53.334;6.534;2023-02-21T18:40:43;8.40;99.90
53802;DHT22;39709;53.334;6.534;2023-02-21T18:45:46;9.20;99.90
53802;DHT22;39709;53.334;6.534;2023-02-21T18:48:12;9.20;99.90
53802;DHT22;39709;53.334;6.534;2023-02-21T18:50:39;9.10;99.90
53802;DHT22;39709;53.334;6.534;2023-02-21T18:53:04;9.20;99.90
53802;DHT22;39709;53.334;6.534;2023-02-21T18:55:31;8.40;99.90
53802;DHT22;39709;53.334;6.534;2023-02-21T18:57:57;8.40;99.90
53802;DHT22;39709;53.334;6.534;2023-02-21T19:00:24;8.70;99.90
53802;DHT22;39709;53.334;6.534;2023-02-21T19:02:50;9.10;99.90
53802;DHT22;39709;53.334;6.534;2023-02-21T19:05:18;8.30;99.90
53802;DHT22;39709;53.334;6.534;2023-02-21T19:07:45;8.50;99.90
53802;DHT22;39709;53.334;6.534;2023-02-21T19:10:12;8.30;99.90